Time;durP1;ratioP1;P1;durP2;ratioP2;P2;SDS_P1;SDS_P2;PMS_P1;PMS_P2;Temp;Humidity;BMP_temperature;BMP_pressure;BME280_temperature;BME280_humidity;BME280_pressure;Samples;Min_cycle;Max_cycle;Signal;HPM_P1;HPM_P2
2022/09/05 00:01:03;;;;;;;6.38;3.90;;;19.00;99.90;;;;;;5030796;28;20068;-59
2022/09/05 00:03:37;;;;;;;7.20;4.10;;;19.20;99.90;;;;;;5012513;28;20019;-59
2022/09/05 00:06:15;;;;;;;5.97;4.22;;;19.60;99.90;;;;;;5012433;28;20059;-59
2022/09/05 00:08:59;;;;;;;4.53;4.10;;;19.60;99.90;;;;;;5012523;28;20022;-59
2022/09/05 00:11:35;;;;;;;5.65;4.07;;;19.70;99.90;;;;;;5017753;28;20029;-58
2022/09/05 00:14:28;;;;;;;5.07;3.58;;;19.40;99.90;;;;;;5030561;28;20127;-58
2022/09/05 00:17:25;;;;;;;5.28;3.72;;;19.30;99.90;;;;;;5031973;28;20064;-59
2022/09/05 00:20:19;;;;;;;5.10;3.72;;;19.20;99.90;;;;;;5016964;28;20116;-59
2022/09/05 00:23:06;;;;;;;5.93;3.75;;;19.10;99.90;;;;;;5012648;28;20034;-59
2022/09/05 00:26:15;;;;;;;6.80;3.90;;;19.40;99.90;;;;;;5012300;28;20041;-59
2022/09/05 00:29:28;;;;;;;6.00;3.60;;;19.50;99.90;;;;;;5010218;28;20034;-59
2022/09/05 00:32:20;;;;;;;6.00;3.58;;;20.00;99.90;;;;;;5005223;28;20038;-59
2022/09/05 00:34:52;;;;;;;6.05;3.58;;;19.80;99.90;;;;;;4951506;29;20066;-59
2022/09/05 00:37:30;;;;;;;4.43;3.50;;;19.80;99.90;;;;;;4951461;29;20035;-60
2022/09/05 00:40:12;;;;;;;6.07;3.30;;;19.90;99.90;;;;;;4971781;28;20062;-59
2022/09/05 00:42:38;;;;;;;6.35;3.75;;;20.10;99.90;;;;;;4973933;28;20069;-58
2022/09/05 00:45:05;;;;;;;5.82;3.55;;;20.10;99.90;;;;;;4989951;28;20547;-59
2022/09/05 00:47:52;;;;;;;6.20;3.35;;;20.00;99.90;;;;;;4990334;28;20039;-59
2022/09/05 00:50:34;;;;;;;6.22;3.40;;;20.00;99.90;;;;;;4989844;28;20030;-59
2022/09/05 00:53:26;;;;;;;5.70;3.75;;;20.10;99.90;;;;;;4989890;28;20042;-59
2022/09/05 00:56:17;;;;;;;4.78;3.72;;;20.00;99.90;;;;;;4983029;28;20053;-59
2022/09/05 00:59:19;;;;;;;6.95;3.88;;;20.10;99.90;;;;;;4990125;28;20041;-59
2022/09/05 01:02:08;;;;;;;4.20;3.50;;;20.10;99.90;;;;;;4990077;28;20308;-59
2022/09/05 01:04:47;;;;;;;6.18;3.50;;;20.20;99.90;;;;;;4989860;28;20096;-59
2022/09/05 01:07:44;;;;;;;5.20;3.58;;;20.00;99.90;;;;;;4990156;28;20137;-58
2022/09/05 01:10:18;;;;;;;4.13;3.38;;;20.00;99.90;;;;;;4993408;28;20488;-58
2022/09/05 01:13:21;;;;;;;4.80;3.38;;;20.10;99.90;;;;;;5049295;28;20056;-59
2022/09/05 01:16:14;;;;;;;5.35;3.50;;;19.90;99.90;;;;;;5054546;28;20037;-59
2022/09/05 01:18:55;;;;;;;5.83;3.50;;;19.90;99.90;;;;;;5055049;28;20017;-59
2022/09/05 01:21:37;;;;;;;4.53;3.40;;;20.00;99.90;;;;;;5055301;28;20413;-59
2022/09/05 01:24:27;;;;;;;6.78;3.13;;;20.10;99.90;;;;;;5055278;28;20036;-59
2022/09/05 01:26:58;;;;;;;8.05;3.47;;;20.00;99.90;;;;;;5054363;28;20535;-58
2022/09/05 01:29:46;;;;;;;4.05;3.17;;;20.00;99.90;;;;;;5048876;28;20052;-58
2022/09/05 01:32:29;;;;;;;5.72;3.35;;;20.20;99.90;;;;;;5035077;28;20108;-58
2022/09/05 01:35:20;;;;;;;5.68;3.20;;;19.90;99.90;;;;;;5034650;28;20037;-59
2022/09/05 01:37:54;;;;;;;8.30;3.45;;;19.70;99.90;;;;;;5034472;28;20436;-58
2022/09/05 01:40:33;;;;;;;4.57;3.22;;;20.20;99.90;;;;;;5048618;28;20044;-58
2022/09/05 01:43:16;;;;;;;7.03;3.40;;;20.10;99.90;;;;;;5018202;28;20044;-58
2022/09/05 01:46:05;;;;;;;7.30;3.30;;;19.60;99.90;;;;;;5014795;28;20056;-58
2022/09/05 01:49:08;;;;;;;5.30;3.28;;;19.70;99.90;;;;;;5020157;28;20037;-59
2022/09/05 01:51:54;;;;;;;6.43;3.63;;;19.90;99.90;;;;;;5033174;28;20026;-58
2022/09/05 01:55:12;;;;;;;6.07;3.47;;;20.00;99.90;;;;;;5012675;28;20057;-58
2022/09/05 01:58:08;;;;;;;6.68;3.25;;;19.70;99.90;;;;;;4992682;28;20045;-58
2022/09/05 02:00:55;;;;;;;6.38;3.20;;;19.80;99.90;;;;;;4990231;28;20027;-58
2022/09/05 02:03:27;;;;;;;4.95;3.35;;;19.70;99.90;;;;;;4973813;28;20031;-58
2022/09/05 02:06:26;;;;;;;6.53;3.15;;;19.80;99.90;;;;;;4973209;28;20118;-58
2022/09/05 02:09:08;;;;;;;4.50;3.45;;;20.00;99.90;;;;;;4973251;28;20039;-58
2022/09/05 02:12:02;;;;;;;7.18;3.20;;;19.90;99.90;;;;;;4972841;28;20035;-59
2022/09/05 02:15:06;;;;;;;5.47;3.00;;;19.90;99.90;;;;;;4972913;28;20109;-58
2022/09/05 02:17:39;;;;;;;4.70;2.95;;;19.70;99.90;;;;;;4970289;28;20042;-59
2022/09/05 02:20:27;;;;;;;6.18;3.40;;;19.80;99.90;;;;;;4987931;28;20058;-58
2022/09/05 02:22:52;;;;;;;3.92;3.05;;;19.80;99.90;;;;;;4992855;28;20092;-58
2022/09/05 02:25:24;;;;;;;4.97;3.00;;;19.80;99.90;;;;;;4991954;28;20035;-58
2022/09/05 02:27:57;;;;;;;5.03;3.08;;;19.50;99.90;;;;;;4992135;28;20077;-58
2022/09/05 02:30:26;;;;;;;5.10;3.22;;;19.70;99.90;;;;;;4991487;28;20078;-58
2022/09/05 02:33:16;;;;;;;4.57;3.00;;;19.60;99.90;;;;;;4973501;28;20527;-57
2022/09/05 02:36:09;;;;;;;5.45;2.95;;;19.80;99.90;;;;;;5029193;28;20029;-58
2022/09/05 02:39:23;;;;;;;4.43;3.08;;;19.80;99.90;;;;;;5013714;28;20124;-58
2022/09/05 02:42:15;;;;;;;6.57;3.45;;;19.60;99.90;;;;;;4992381;28;20058;-58
2022/09/05 02:45:05;;;;;;;4.35;3.28;;;19.40;99.90;;;;;;4982234;28;20034;-59
2022/09/05 02:48:02;;;;;;;6.88;3.83;;;19.40;99.90;;;;;;4991825;28;20041;-59
2022/09/05 02:51:08;;;;;;;6.57;3.45;;;19.50;99.90;;;;;;4991715;28;20058;-58
2022/09/05 02:53:38;;;;;;;5.68;3.22;;;19.70;99.90;;;;;;4983455;28;20054;-59
2022/09/05 02:56:07;;;;;;;6.28;3.50;;;19.60;99.90;;;;;;4991551;28;20065;-58
2022/09/05 02:58:52;;;;;;;5.90;3.50;;;19.40;99.90;;;;;;4991706;28;20034;-59
2022/09/05 03:01:45;;;;;;;4.60;3.00;;;19.70;99.90;;;;;;4991577;28;20030;-58
2022/09/05 03:04:26;;;;;;;7.43;3.90;;;19.60;99.90;;;;;;4991446;28;20110;-58
2022/09/05 03:07:24;;;;;;;5.88;3.47;;;19.40;99.90;;;;;;4991555;28;20181;-59
2022/09/05 03:10:11;;;;;;;7.03;3.45;;;19.50;99.90;;;;;;4991107;28;20050;-58
2022/09/05 03:13:18;;;;;;;7.90;3.50;;;19.40;99.90;;;;;;4991405;28;20122;-59
2022/09/05 03:15:55;;;;;;;4.13;3.00;;;19.50;99.90;;;;;;4991278;28;20149;-59
2022/09/05 03:18:30;;;;;;;5.07;3.33;;;19.60;99.90;;;;;;5003049;28;20044;-58
2022/09/05 03:21:14;;;;;;;4.82;3.30;;;19.50;99.90;;;;;;5012783;28;20069;-58
2022/09/05 03:23:45;;;;;;;;;;;19.40;99.90;;;;;;5013581;28;20025;-59
2022/09/05 03:26:35;;;;;;;5.25;3.20;;;19.40;99.90;;;;;;5012980;28;20386;-59
2022/09/05 03:29:10;;;;;;;7.43;3.72;;;19.30;99.90;;;;;;5012908;28;20040;-59
2022/09/05 03:32:09;;;;;;;4.00;3.20;;;19.20;99.90;;;;;;5019931;28;20034;-59
2022/09/05 03:35:05;;;;;;;6.47;3.40;;;19.30;99.90;;;;;;5012848;28;20038;-59
2022/09/05 03:37:37;;;;;;;4.32;3.15;;;18.90;99.90;;;;;;5012607;28;20076;-58
2022/09/05 03:40:40;;;;;;;6.38;3.40;;;18.40;99.90;;;;;;5035936;28;20112;-59
2022/09/05 03:43:33;;;;;;;5.85;3.42;;;18.60;99.90;;;;;;5052377;28;20043;-58
2022/09/05 03:46:20;;;;;;;5.82;3.22;;;19.00;99.90;;;;;;5032969;28;20063;-59
2022/09/05 03:49:18;;;;;;;5.07;3.38;;;18.50;99.90;;;;;;5012648;28;20037;-59
2022/09/05 03:52:11;;;;;;;6.50;3.47;;;17.90;99.90;;;;;;5012737;28;20591;-59
2022/09/05 03:54:49;;;;;;;4.55;3.90;;;17.80;99.90;;;;;;5012531;28;20168;-58
2022/09/05 03:57:34;;;;;;;5.07;3.40;;;17.60;99.90;;;;;;5013143;28;20513;-58
2022/09/05 04:00:20;;;;;;;6.22;3.78;;;17.60;99.90;;;;;;5012429;28;20033;-58
2022/09/05 04:02:57;;;;;;;5.60;3.83;;;17.60;99.90;;;;;;5012547;28;20030;-58
2022/09/05 04:05:44;;;;;;;7.20;4.10;;;17.60;99.90;;;;;;5012501;28;20483;-58
2022/09/05 04:08:18;;;;;;;6.80;3.63;;;17.60;99.90;;;;;;5012002;28;20108;-59
2022/09/05 04:11:05;;;;;;;5.40;3.90;;;17.40;99.90;;;;;;5012428;28;20552;-58
2022/09/05 04:14:04;;;;;;;4.88;3.45;;;17.60;99.90;;;;;;5011102;28;20048;-59
2022/09/05 04:16:42;;;;;;;4.65;3.22;;;17.70;99.90;;;;;;5011721;28;20044;-59
2022/09/05 04:19:27;;;;;;;4.22;3.40;;;17.40;99.90;;;;;;5012666;28;20113;-59
2022/09/05 04:22:23;;;;;;;5.50;3.45;;;17.40;99.90;;;;;;5012143;28;20038;-59
2022/09/05 04:25:14;;;;;;;5.38;3.60;;;17.50;99.90;;;;;;5012305;28;20026;-59
2022/09/05 04:27:49;;;;;;;4.57;3.45;;;17.40;99.90;;;;;;5012015;28;20111;-58
2022/09/05 04:30:58;;;;;;;5.28;3.63;;;17.70;99.90;;;;;;5012308;28;20029;-59
2022/09/05 04:33:36;;;;;;;5.32;3.70;;;17.30;99.90;;;;;;5006790;28;20042;-58
2022/09/05 04:36:29;;;;;;;4.88;4.00;;;17.30;99.90;;;;;;5012175;28;20026;-58
2022/09/05 04:39:16;;;;;;;5.07;3.50;;;17.00;99.90;;;;;;5016220;28;20056;-58
2022/09/05 04:41:47;;;;;;;4.80;3.50;;;17.80;99.90;;;;;;5051958;28;20036;-58
2022/09/05 04:44:36;;;;;;;7.25;4.38;;;18.70;99.90;;;;;;5054370;28;20040;-59
2022/09/05 04:47:09;;;;;;;6.00;4.03;;;17.60;99.90;;;;;;5055616;28;20029;-59
2022/09/05 04:49:45;;;;;;;6.33;3.50;;;17.20;99.90;;;;;;5055536;28;20067;-59
2022/09/05 04:52:35;;;;;;;5.82;3.58;;;17.40;99.90;;;;;;5055825;28;20264;-59
2022/09/05 04:55:07;;;;;;;6.07;3.63;;;17.40;99.90;;;;;;5055516;28;20051;-58
2022/09/05 04:57:47;;;;;;;5.85;3.85;;;17.40;99.90;;;;;;5055503;28;20025;-59
2022/09/05 05:00:31;;;;;;;5.78;4.07;;;17.50;99.90;;;;;;5055732;28;20021;-59
2022/09/05 05:03:01;;;;;;;5.47;3.70;;;17.50;99.90;;;;;;5030380;28;20505;-58
2022/09/05 05:05:50;;;;;;;6.18;3.63;;;17.80;99.90;;;;;;5015258;28;20026;-59
2022/09/05 05:08:41;;;;;;;5.90;3.60;;;18.50;99.90;;;;;;5015626;28;20217;-58
2022/09/05 05:11:15;;;;;;;6.15;3.50;;;18.50;99.90;;;;;;5015421;28;20487;-59
2022/09/05 05:13:46;;;;;;;5.60;3.63;;;17.90;99.90;;;;;;5015436;28;20376;-58
2022/09/05 05:16:18;;;;;;;5.25;4.15;;;17.60;99.90;;;;;;5029042;28;20498;-58
2022/09/05 05:18:50;;;;;;;5.05;4.20;;;16.70;99.90;;;;;;5035064;28;20032;-58
2022/09/05 05:21:19;;;;;;;7.57;4.10;;;16.30;99.90;;;;;;5033720;28;20084;-59
2022/09/05 05:23:54;;;;;;;4.63;3.85;;;16.10;99.90;;;;;;5035039;28;20030;-59
2022/09/05 05:26:23;;;;;;;5.80;3.53;;;16.60;99.90;;;;;;5035124;28;20026;-59
2022/09/05 05:29:28;;;;;;;5.53;4.28;;;16.80;99.90;;;;;;5035266;28;20506;-57
2022/09/05 05:31:58;;;;;;;7.40;4.35;;;16.60;99.90;;;;;;5029942;28;20041;-57
2022/09/05 05:34:43;;;;;;;7.22;4.10;;;17.00;99.90;;;;;;5021876;28;20056;-57
2022/09/05 05:37:19;;;;;;;7.82;4.13;;;16.40;99.90;;;;;;5015010;28;20099;-57
2022/09/05 05:40:03;;;;;;;8.48;4.10;;;16.30;99.90;;;;;;5027798;28;20037;-59
2022/09/05 05:42:29;;;;;;;5.63;3.95;;;16.20;99.90;;;;;;5035081;28;20479;-59
2022/09/05 05:44:57;;;;;;;9.23;4.10;;;16.10;99.90;;;;;;5034629;28;20029;-59
2022/09/05 05:47:25;;;;;;;8.27;4.28;;;16.10;99.90;;;;;;5033200;28;20435;-58
2022/09/05 05:50:13;;;;;;;12.77;4.90;;;16.00;99.90;;;;;;5034712;28;20040;-58
2022/09/05 05:52:58;;;;;;;9.50;4.15;;;15.90;99.90;;;;;;5034521;28;20034;-58
2022/09/05 05:55:47;;;;;;;8.57;4.55;;;16.50;99.90;;;;;;5033416;28;20433;-58
2022/09/05 05:58:25;;;;;;;6.32;4.70;;;16.90;99.90;;;;;;5049779;28;20459;-58
2022/09/05 06:01:24;;;;;;;9.63;4.20;;;16.80;99.90;;;;;;5027946;28;20037;-58
2022/09/05 06:04:17;;;;;;;8.82;4.40;;;17.60;99.90;;;;;;5014041;28;20042;-58
2022/09/05 06:07:07;;;;;;;7.13;3.88;;;18.10;99.90;;;;;;5014633;28;20479;-58
2022/09/05 06:09:45;;;;;;;9.43;4.15;;;17.90;99.90;;;;;;5014362;28;20033;-58
2022/09/05 06:12:19;;;;;;;10.02;4.68;;;18.50;99.90;;;;;;5014457;28;20545;-58
2022/09/05 06:15:13;;;;;;;8.00;4.00;;;19.30;99.90;;;;;;5014254;28;20034;-58
2022/09/05 06:18:23;;;;;;;7.53;3.90;;;21.30;99.90;;;;;;5013943;28;20105;-58
2022/09/05 06:21:23;;;;;;;7.97;4.03;;;22.20;99.90;;;;;;5014236;28;20042;-58
2022/09/05 06:23:58;;;;;;;13.15;4.28;;;22.70;99.90;;;;;;5013952;28;20641;-58
2022/09/05 06:26:44;;;;;;;7.90;3.70;;;23.10;99.90;;;;;;5014024;28;20049;-58
2022/09/05 06:29:13;;;;;;;7.43;4.32;;;23.70;99.90;;;;;;5014161;28;20029;-59
2022/09/05 06:31:52;;;;;;;7.18;3.60;;;24.40;99.90;;;;;;5013605;28;20104;-58
2022/09/05 06:34:30;;;;;;;6.25;4.28;;;25.20;99.90;;;;;;5013903;28;20388;-58
2022/09/05 06:37:32;;;;;;;6.28;4.10;;;24.40;99.90;;;;;;5013812;28;20018;-58
2022/09/05 06:40:10;;;;;;;8.25;4.65;;;25.90;99.90;;;;;;5035269;28;20025;-58
2022/09/05 06:42:58;;;;;;;8.27;4.78;;;25.40;99.90;;;;;;5053642;28;20024;-58
2022/09/05 06:45:45;;;;;;;9.40;4.00;;;26.10;99.90;;;;;;5053408;28;20041;-58
2022/09/05 06:48:18;;;;;;;10.20;4.53;;;26.70;99.90;;;;;;5053318;28;20096;-58
2022/09/05 06:51:19;;;;;;;7.18;5.30;;;26.70;99.90;;;;;;5037173;28;20030;-59
2022/09/05 06:53:56;;;;;;;8.35;4.90;;;26.60;99.90;;;;;;4991704;28;20049;-58
2022/09/05 06:56:41;;;;;;;6.03;4.60;;;26.60;99.90;;;;;;4991611;28;20023;-59
2022/09/05 06:59:17;;;;;;;7.75;4.70;;;27.80;97.90;;;;;;4991852;28;20035;-59
2022/09/05 07:01:56;;;;;;;5.30;4.30;;;27.60;97.90;;;;;;4991189;28;20065;-58
2022/09/05 07:04:30;;;;;;;6.97;4.82;;;26.30;99.90;;;;;;4991416;28;20502;-59
2022/09/05 07:07:13;;;;;;;7.30;4.72;;;27.50;98.10;;;;;;4991321;28;20030;-59
2022/09/05 07:09:54;;;;;;;;;;;28.20;97.40;;;;;;4992333;28;20026;-59
2022/09/05 07:12:26;;;;;;;7.20;5.38;;;27.50;98.00;;;;;;4991932;28;19969;-59
2022/09/05 07:15:16;;;;;;;8.18;4.72;;;28.10;96.50;;;;;;4984958;28;20460;-57
2022/09/05 07:18:06;;;;;;;7.28;5.10;;;28.70;95.90;;;;;;4990732;28;20113;-57
2022/09/05 07:21:03;;;;;;;8.40;4.80;;;27.60;96.70;;;;;;4990101;28;20102;-57
2022/09/05 07:23:41;;;;;;;7.57;5.22;;;28.30;96.00;;;;;;4989735;28;20542;-54
2022/09/05 07:26:09;;;;;;;9.75;5.00;;;29.10;94.90;;;;;;4990640;28;20033;-59
2022/09/05 07:28:40;;;;;;;7.25;5.78;;;29.00;95.50;;;;;;4990880;28;20034;-57
2022/09/05 07:31:14;;;;;;;103.57;17.70;;;29.50;94.40;;;;;;5019409;28;20513;-55
2022/09/05 07:33:43;;;;;;;89.25;15.88;;;30.80;93.00;;;;;;5032059;28;20069;-59
2022/09/05 07:36:14;;;;;;;64.50;13.43;;;30.30;92.70;;;;;;5032028;28;20022;-60
2022/09/05 07:38:42;;;;;;;233.70;31.70;;;30.30;92.50;;;;;;5032191;28;20040;-64
2022/09/05 07:41:28;;;;;;;136.07;22.17;;;29.20;93.70;;;;;;5051304;28;20036;-64
2022/09/05 07:44:23;;;;;;;12.77;6.07;;;30.60;92.30;;;;;;5051030;28;20072;-64
2022/09/05 07:47:00;;;;;;;47.63;11.23;;;28.20;94.20;;;;;;5029597;28;20044;-64
2022/09/05 07:49:28;;;;;;;40.38;10.32;;;29.50;94.30;;;;;;5029322;28;20049;-63
2022/09/05 07:52:04;;;;;;;17.58;6.88;;;30.40;92.90;;;;;;5029118;28;20065;-63
2022/09/05 07:54:35;;;;;;;57.47;12.32;;;31.10;91.30;;;;;;5028734;28;20132;-63
2022/09/05 07:57:08;;;;;;;21.52;7.50;;;31.20;91.40;;;;;;5018662;28;20092;-64
2022/09/05 07:59:37;;;;;;;48.35;10.60;;;30.90;91.50;;;;;;5022721;28;20033;-64
2022/09/05 08:02:06;;;;;;;6.72;5.32;;;30.10;92.30;;;;;;5028589;28;20021;-64
2022/09/05 08:04:34;;;;;;;11.35;5.28;;;29.80;92.50;;;;;;5028359;28;20421;-68
2022/09/05 08:07:20;;;;;;;16.33;6.57;;;31.60;91.00;;;;;;5029087;28;20034;-62
2022/09/05 08:09:50;;;;;;;19.77;7.15;;;31.50;91.10;;;;;;5029278;28;20049;-63
2022/09/05 08:12:27;;;;;;;10.60;5.78;;;31.40;90.50;;;;;;5029243;28;20482;-64
2022/09/05 08:14:55;;;;;;;11.63;6.07;;;31.70;90.70;;;;;;5023589;28;20048;-64
2022/09/05 08:17:24;;;;;;;9.52;5.63;;;31.10;91.40;;;;;;5008979;28;20041;-64
2022/09/05 08:20:03;;;;;;;9.98;5.43;;;31.40;91.10;;;;;;5008438;28;20244;-64
2022/09/05 08:22:36;;;;;;;10.30;5.50;;;31.20;91.20;;;;;;5007957;28;20049;-65
2022/09/05 08:25:16;;;;;;;7.95;5.50;;;31.10;91.10;;;;;;5011535;28;20036;-64
2022/09/05 08:27:44;;;;;;;6.80;5.10;;;33.40;88.00;;;;;;5011758;28;20553;-65
2022/09/05 08:30:11;;;;;;;9.40;5.50;;;31.40;90.60;;;;;;5012123;28;20033;-65
2022/09/05 08:32:57;;;;;;;11.23;5.30;;;33.20;88.70;;;;;;5011910;28;20033;-65
2022/09/05 08:35:28;;;;;;;9.18;5.63;;;33.70;86.90;;;;;;5012072;28;20030;-64
2022/09/05 08:37:56;;;;;;;8.23;5.20;;;33.20;87.00;;;;;;5011960;28;20028;-64
2022/09/05 08:40:28;;;;;;;6.22;5.60;;;33.90;86.50;;;;;;5039440;28;20074;-65
2022/09/05 08:43:27;;;;;;;6.35;4.65;;;31.70;89.00;;;;;;5050490;28;20562;-70
2022/09/05 08:46:01;;;;;;;8.13;5.25;;;33.50;87.30;;;;;;5051292;28;20025;-64
2022/09/05 08:48:36;;;;;;;7.15;5.20;;;35.90;83.40;;;;;;5051196;28;20866;-64
2022/09/05 08:51:36;;;;;;;7.63;5.40;;;33.40;85.90;;;;;;5051115;28;20147;-64
2022/09/05 08:54:13;;;;;;;8.38;4.97;;;34.10;85.30;;;;;;5051187;28;20493;-64
2022/09/05 08:56:38;;;;;;;8.13;5.18;;;34.70;84.30;;;;;;5050986;28;20021;-64
2022/09/05 08:59:36;;;;;;;5.82;5.07;;;34.90;83.70;;;;;;5051253;28;20508;-64
2022/09/05 09:02:30;;;;;;;7.28;5.07;;;34.70;83.00;;;;;;5051314;28;20512;-64
2022/09/05 09:05:16;;;;;;;6.70;4.78;;;33.00;87.00;;;;;;5051485;28;20013;-65
2022/09/05 09:08:04;;;;;;;7.50;4.70;;;33.40;85.30;;;;;;5051121;28;20434;-65
2022/09/05 09:10:58;;;;;;;10.90;4.70;;;36.20;82.30;;;;;;5050648;28;20044;-65
2022/09/05 09:13:36;;;;;;;8.02;4.72;;;36.90;79.50;;;;;;5050485;28;20082;-65
2022/09/05 09:16:09;;;;;;;9.18;5.10;;;35.90;80.90;;;;;;5050856;28;20044;-66
2022/09/05 09:18:47;;;;;;;6.03;4.70;;;35.00;81.90;;;;;;5050903;28;20409;-65
2022/09/05 09:21:48;;;;;;;5.60;4.28;;;35.70;82.00;;;;;;5051303;28;20417;-64
2022/09/05 09:24:51;;;;;;;7.10;4.47;;;36.30;81.20;;;;;;5029144;28;20124;-64
2022/09/05 09:27:34;;;;;;;7.90;4.32;;;37.20;79.30;;;;;;5012204;28;20120;-66
2022/09/05 09:30:04;;;;;;;8.77;4.35;;;36.60;80.20;;;;;;5030120;28;20044;-65
2022/09/05 09:32:42;;;;;;;6.30;4.03;;;35.90;81.20;;;;;;5022320;28;20034;-65
2022/09/05 09:35:22;;;;;;;5.93;4.00;;;35.80;81.50;;;;;;5005097;28;20050;-66
2022/09/05 09:38:12;;;;;;;7.40;4.65;;;35.10;81.90;;;;;;5012169;28;20030;-65
2022/09/05 09:40:47;;;;;;;5.35;3.65;;;35.60;82.30;;;;;;5028155;28;20768;-65
2022/09/05 09:43:29;;;;;;;6.10;3.58;;;34.00;83.80;;;;;;5032284;28;20040;-65
2022/09/05 09:46:14;;;;;;;6.93;3.40;;;34.30;84.60;;;;;;5032313;28;20029;-66
2022/09/05 09:49:14;;;;;;;8.65;3.60;;;36.50;82.10;;;;;;5011603;28;20038;-66
2022/09/05 09:51:43;;;;;;;6.60;3.10;;;37.10;82.60;;;;;;5011940;28;20030;-66
2022/09/05 09:54:27;;;;;;;14.02;3.40;;;34.60;83.20;;;;;;5009936;28;20128;-65
2022/09/05 09:56:52;;;;;;;6.40;2.42;;;34.90;82.70;;;;;;5010805;28;20030;-65
2022/09/05 09:59:28;;;;;;;11.40;2.60;;;34.80;80.40;;;;;;5010771;28;20056;-65
2022/09/05 10:02:09;;;;;;;13.85;2.95;;;33.50;82.70;;;;;;5033744;28;20064;-65
2022/09/05 10:04:57;;;;;;;9.68;2.25;;;32.20;83.90;;;;;;5033681;28;20034;-65
2022/09/05 10:07:41;;;;;;;10.43;2.38;;;32.90;82.80;;;;;;5033695;28;20025;-66
2022/09/05 10:10:35;;;;;;;6.28;2.20;;;34.00;79.80;;;;;;5031895;28;20104;-66
2022/09/05 10:13:21;;;;;;;4.35;2.10;;;32.60;81.50;;;;;;5033501;28;20086;-66
2022/09/05 10:16:09;;;;;;;6.07;2.10;;;32.60;81.90;;;;;;5033169;28;20029;-66
2022/09/05 10:18:46;;;;;;;12.80;2.70;;;32.70;80.90;;;;;;5033749;28;20466;-66
2022/09/05 10:21:27;;;;;;;14.05;2.50;;;32.40;82.70;;;;;;5032234;28;20498;-66
2022/09/05 10:23:53;;;;;;;9.50;2.33;;;32.50;81.10;;;;;;5032810;28;20025;-64
2022/09/05 10:26:40;;;;;;;9.40;2.15;;;32.80;80.30;;;;;;5032516;28;20050;-64
2022/09/05 10:29:10;;;;;;;7.28;2.38;;;32.30;80.90;;;;;;5032690;28;20079;-65
2022/09/05 10:31:48;;;;;;;9.52;2.28;;;32.80;79.80;;;;;;5032923;28;20083;-64
2022/09/05 10:34:21;;;;;;;5.40;2.17;;;32.40;81.00;;;;;;5033437;28;20049;-68
2022/09/05 10:36:58;;;;;;;10.93;2.42;;;31.10;82.60;;;;;;5033263;28;20091;-66
2022/09/05 10:39:28;;;;;;;4.10;2.05;;;32.20;80.70;;;;;;5037926;28;20490;-65
2022/09/05 10:41:59;;;;;;;10.77;2.17;;;32.20;79.90;;;;;;5051541;28;20390;-64
2022/09/05 10:44:44;;;;;;;6.22;1.85;;;32.60;79.80;;;;;;5052884;28;20125;-65
2022/09/05 10:47:34;;;;;;;4.72;1.90;;;32.10;79.90;;;;;;5052715;28;20103;-65
2022/09/05 10:50:35;;;;;;;7.10;2.25;;;32.20;79.50;;;;;;5052353;28;20044;-65
2022/09/05 10:53:38;;;;;;;6.43;1.85;;;31.80;80.60;;;;;;5050588;28;20029;-65
2022/09/05 10:56:20;;;;;;;7.30;1.98;;;32.10;80.50;;;;;;5052725;28;20024;-65
2022/09/05 10:59:03;;;;;;;9.98;2.28;;;31.30;82.00;;;;;;5052647;28;20475;-64
2022/09/05 11:01:49;;;;;;;6.22;2.20;;;31.70;82.10;;;;;;5051496;28;20049;-65
2022/09/05 11:04:32;;;;;;;6.63;1.98;;;31.00;82.50;;;;;;5036688;28;20384;-66
2022/09/05 11:07:18;;;;;;;8.00;2.15;;;31.80;82.10;;;;;;5024564;28;20041;-64
2022/09/05 11:09:51;;;;;;;5.95;2.28;;;31.40;82.20;;;;;;5022983;28;20032;-65
2022/09/05 11:12:35;;;;;;;6.88;2.28;;;31.30;81.70;;;;;;5020477;28;20386;-66
2022/09/05 11:15:25;;;;;;;6.63;2.00;;;31.90;80.80;;;;;;5023288;28;20037;-66
2022/09/05 11:18:08;;;;;;;5.38;2.00;;;32.00;80.30;;;;;;5021402;28;20026;-67
2022/09/05 11:21:06;;;;;;;6.18;1.95;;;32.30;80.10;;;;;;5022170;28;20045;-66
2022/09/05 11:23:45;;;;;;;4.93;1.80;;;31.00;81.40;;;;;;5021789;28;20030;-65
2022/09/05 11:26:34;;;;;;;5.82;2.00;;;31.20;81.60;;;;;;5016345;28;20096;-64
2022/09/05 11:29:14;;;;;;;7.30;2.30;;;30.80;82.70;;;;;;5052037;28;20087;-65
2022/09/05 11:32:02;;;;;;;5.53;2.30;;;31.30;82.00;;;;;;5051810;28;20039;-66
2022/09/05 11:34:33;;;;;;;8.70;1.95;;;30.90;82.40;;;;;;5051073;28;20123;-65
2022/09/05 11:37:03;;;;;;;5.82;1.95;;;30.30;83.70;;;;;;5051052;28;20036;-65
2022/09/05 11:39:34;;;;;;;9.80;2.30;;;31.30;81.70;;;;;;5051772;28;20029;-66
2022/09/05 11:42:27;;;;;;;8.68;2.20;;;31.50;81.40;;;;;;5051996;28;20436;-66
2022/09/05 11:45:34;;;;;;;4.28;1.80;;;31.80;80.70;;;;;;5051403;28;20115;-64
2022/09/05 11:48:42;;;;;;;4.43;2.00;;;31.90;80.00;;;;;;5051666;28;20059;-65
2022/09/05 11:51:24;;;;;;;4.70;1.98;;;32.40;78.80;;;;;;5028348;28;20247;-65
2022/09/05 11:54:03;;;;;;;3.60;2.03;;;31.70;79.50;;;;;;5027686;28;20048;-65
2022/09/05 11:56:58;;;;;;;5.40;2.10;;;32.00;78.70;;;;;;5029518;28;20033;-64
2022/09/05 11:59:59;;;;;;;4.28;1.80;;;31.90;78.80;;;;;;4951283;29;20081;-65
2022/09/05 12:02:59;;;;;;;4.68;1.85;;;31.60;78.80;;;;;;4913388;29;20032;-65
2022/09/05 12:05:51;;;;;;;5.63;2.08;;;32.10;77.90;;;;;;4912445;29;20032;-66
2022/09/05 12:08:48;;;;;;;7.05;2.05;;;32.30;77.90;;;;;;4912958;29;20048;-66
2022/09/05 12:11:45;;;;;;;5.90;2.08;;;31.90;78.30;;;;;;4912590;29;20052;-65
2022/09/05 12:14:22;;;;;;;6.10;1.98;;;32.10;78.10;;;;;;4912195;29;20048;-65
2022/09/05 12:16:54;;;;;;;6.55;1.98;;;31.00;80.20;;;;;;4913321;29;20549;-66
2022/09/05 12:19:46;;;;;;;5.38;2.00;;;31.60;78.70;;;;;;4911938;29;20055;-65
2022/09/05 12:22:31;;;;;;;4.20;1.98;;;31.90;77.50;;;;;;4912716;29;20517;-65
2022/09/05 12:25:06;;;;;;;5.05;1.88;;;32.60;76.60;;;;;;4911841;29;20193;-65
2022/09/05 12:27:37;;;;;;;6.32;2.17;;;32.10;77.10;;;;;;4897738;29;20047;-65
2022/09/05 12:30:08;;;;;;;7.20;2.40;;;31.90;77.20;;;;;;4893724;29;20045;-65
2022/09/05 12:33:09;;;;;;;4.78;1.95;;;32.30;77.30;;;;;;4894007;29;20064;-65
2022/09/05 12:35:35;;;;;;;5.97;2.20;;;31.70;77.40;;;;;;4902457;28;20186;-66
2022/09/05 12:38:25;;;;;;;7.32;2.22;;;31.90;77.70;;;;;;4970112;28;20551;-66
2022/09/05 12:41:12;;;;;;;4.45;2.00;;;31.50;78.20;;;;;;5041877;28;20494;-64
2022/09/05 12:44:00;;;;;;;8.90;1.92;;;31.20;78.50;;;;;;5031108;28;20060;-64
2022/09/05 12:46:55;;;;;;;8.55;1.90;;;31.40;77.10;;;;;;5030762;28;20025;-64
2022/09/05 12:49:36;;;;;;;18.05;2.15;;;31.10;77.50;;;;;;5026147;28;20199;-64
2022/09/05 12:52:18;;;;;;;7.68;2.00;;;31.40;76.80;;;;;;5031317;28;20036;-64
2022/09/05 12:54:58;;;;;;;4.03;1.75;;;31.70;76.90;;;;;;5031562;28;20490;-64
2022/09/05 12:57:26;;;;;;;4.38;1.98;;;31.10;76.90;;;;;;5030218;28;20045;-64
2022/09/05 12:59:57;;;;;;;5.05;1.73;;;31.00;76.20;;;;;;5030256;28;20084;-63
2022/09/05 13:02:29;;;;;;;4.20;1.83;;;31.30;75.60;;;;;;5031292;28;20454;-64
2022/09/05 13:05:00;;;;;;;3.93;1.90;;;31.50;75.80;;;;;;5032495;28;20030;-64
2022/09/05 13:07:42;;;;;;;5.93;1.65;;;31.40;74.70;;;;;;5034114;28;20040;-64
2022/09/05 13:10:14;;;;;;;4.80;1.77;;;31.40;75.50;;;;;;5034329;28;20021;-64
2022/09/05 13:13:04;;;;;;;4.45;1.60;;;31.10;75.00;;;;;;5034920;28;20025;-64
2022/09/05 13:15:37;;;;;;;4.95;2.03;;;31.50;74.10;;;;;;5034784;28;20108;-64
2022/09/05 13:18:13;;;;;;;5.05;1.73;;;30.70;74.70;;;;;;5033779;28;20032;-64
2022/09/05 13:20:50;;;;;;;4.70;1.52;;;31.20;73.40;;;;;;5034163;28;20409;-64
2022/09/05 13:23:19;;;;;;;3.75;1.85;;;31.30;72.50;;;;;;5034378;28;20410;-64
2022/09/05 13:26:10;;;;;;;4.15;1.67;;;31.90;70.80;;;;;;5034105;28;20075;-66
2022/09/05 13:28:55;;;;;;;9.55;1.90;;;31.30;73.30;;;;;;5010458;28;20034;-65
2022/09/05 13:31:42;;;;;;;6.28;1.88;;;31.00;75.80;;;;;;5010627;28;20026;-65
2022/09/05 13:34:36;;;;;;;8.52;1.92;;;31.40;75.40;;;;;;5011910;28;20494;-65
2022/09/05 13:37:20;;;;;;;6.53;2.00;;;31.40;72.70;;;;;;5009986;28;20045;-65
2022/09/05 13:39:48;;;;;;;4.38;1.80;;;31.70;72.80;;;;;;5011317;28;20050;-65
2022/09/05 13:42:21;;;;;;;3.60;1.90;;;31.40;74.60;;;;;;5011730;28;20036;-65
2022/09/05 13:44:56;;;;;;;3.70;1.80;;;31.10;76.80;;;;;;5012129;28;20049;-65
2022/09/05 13:47:55;;;;;;;5.55;1.67;;;30.60;77.30;;;;;;5011166;28;20041;-64
2022/09/05 13:50:37;;;;;;;6.35;1.90;;;30.30;78.50;;;;;;5010300;28;20149;-64
2022/09/05 13:53:32;;;;;;;5.25;2.10;;;31.10;77.10;;;;;;5011590;28;20041;-64
2022/09/05 13:56:21;;;;;;;6.68;1.70;;;31.20;77.70;;;;;;5011863;28;20038;-64
2022/09/05 13:59:00;;;;;;;5.32;1.83;;;30.50;78.40;;;;;;5011584;28;20034;-65
2022/09/05 14:01:51;;;;;;;5.78;1.95;;;30.80;77.70;;;;;;5010888;28;20503;-64
2022/09/05 14:04:38;;;;;;;5.75;1.80;;;30.20;77.90;;;;;;5011562;28;20026;-63
2022/09/05 14:07:24;;;;;;;6.07;2.00;;;30.20;78.40;;;;;;5013938;28;20057;-65